Time,TemperatureF,DewpointF,PressureIn,WindDirection,WindDirectionDegrees,WindSpeedMPH,WindSpeedGustMPH,Humidity,HourlyPrecipIn,Conditions,Clouds,dailyrainin,SoftwareType,DateUTC
2013-08-26 00:00:00,79.0,67.0,-100.00,SSE,154,2.0,-999.0,67,0.00,,,0.00,,2013-08-26 05:00:00,
2013-08-26 00:44:00,79.0,67.0,-100.00,SSE,154,2.0,-999.0,67,0.00,,,0.00,,2013-08-26 05:44:00,
2013-08-26 00:52:00,79.0,67.0,-100.00,SSE,154,2.0,-999.0,67,0.00,,,0.00,,2013-08-26 05:52:00,
2013-08-26 01:00:00,78.0,67.0,-100.00,South,184,2.0,-999.0,70,0.00,,,0.00,,2013-08-26 06:00:00,
2013-08-26 01:42:00,78.0,67.0,-100.00,South,184,2.0,-999.0,70,0.00,,,0.00,,2013-08-26 06:42:00,
2013-08-26 01:52:00,78.0,67.0,-100.00,South,184,2.0,-999.0,70,0.00,,,0.00,,2013-08-26 06:52:00,
2013-08-26 02:00:00,75.0,67.0,-100.00,SSE,153,3.0,-999.0,75,0.00,,,0.00,,2013-08-26 07:00:00,
2013-08-26 02:42:00,75.0,67.0,-100.00,SSE,153,3.0,-999.0,75,0.00,,,0.00,,2013-08-26 07:42:00,
2013-08-26 02:52:00,75.0,67.0,-100.00,SSE,153,3.0,-999.0,75,0.00,,,0.00,,2013-08-26 07:52:00,
2013-08-26 03:00:00,76.0,67.0,-100.00,SE,135,3.0,-999.0,76,0.00,,,0.00,,2013-08-26 08:00:00,
2013-08-26 03:42:00,76.0,67.0,-100.00,SE,135,3.0,-999.0,76,0.00,,,0.00,,2013-08-26 08:42:00,
2013-08-26 03:52:00,76.0,67.0,-100.00,SE,135,3.0,-999.0,76,0.00,,,0.00,,2013-08-26 08:52:00,
2013-08-26 04:00:00,75.0,68.0,-100.00,SE,142,3.0,-999.0,79,0.00,,,0.00,,2013-08-26 09:00:00,
2013-08-26 04:43:00,75.0,68.0,-100.00,SE,142,3.0,-999.0,79,0.00,,,0.00,,2013-08-26 09:43:00,
2013-08-26 04:54:00,75.0,68.0,-100.00,SE,142,3.0,-999.0,79,0.00,,,0.00,,2013-08-26 09:54:00,
2013-08-26 05:00:00,73.0,68.0,-100.00,SE,140,3.0,-999.0,83,0.00,,,0.00,,2013-08-26 10:00:00,
2013-08-26 05:42:00,73.0,68.0,-100.00,SE,140,3.0,-999.0,83,0.00,,,0.00,,2013-08-26 10:42:00,
2013-08-26 05:52:00,73.0,68.0,-100.00,SE,140,3.0,-999.0,83,0.00,,,0.00,,2013-08-26 10:52:00,
2013-08-26 06:00:00,73.0,68.0,-100.00,South,172,3.0,-999.0,85,0.00,,,0.00,,2013-08-26 11:00:00,
2013-08-26 06:42:00,73.0,68.0,-100.00,South,172,3.0,-999.0,85,0.00,,,0.00,,2013-08-26 11:42:00,
2013-08-26 06:52:00,73.0,68.0,-100.00,South,172,3.0,-999.0,85,0.00,,,0.00,,2013-08-26 11:52:00,
2013-08-26 07:00:00,73.0,69.0,-100.00,ESE,122,2.0,-999.0,88,0.00,,,0.00,,2013-08-26 12:00:00,
2013-08-26 07:42:00,73.0,69.0,-100.00,ESE,122,2.0,-999.0,88,0.00,,,0.00,,2013-08-26 12:42:00,
2013-08-26 07:52:00,73.0,69.0,-100.00,ESE,122,2.0,-999.0,88,0.00,,,0.00,,2013-08-26 12:52:00,
2013-08-26 08:00:00,76.0,71.0,-100.00,ESE,111,2.0,-999.0,84,0.00,,,0.00,,2013-08-26 13:00:00,
2013-08-26 08:42:00,76.0,71.0,-100.00,ESE,111,2.0,-999.0,84,0.00,,,0.00,,2013-08-26 13:42:00,
2013-08-26 08:52:00,76.0,71.0,-100.00,ESE,111,2.0,-999.0,84,0.00,,,0.00,,2013-08-26 13:52:00,
2013-08-26 09:00:00,80.0,72.0,-100.00,SE,131,4.0,-999.0,76,0.00,,,0.00,,2013-08-26 14:00:00,
2013-08-26 09:42:00,80.0,72.0,-100.00,SE,131,4.0,-999.0,76,0.00,,,0.00,,2013-08-26 14:42:00,
2013-08-26 09:52:00,80.0,72.0,-100.00,SE,131,4.0,-999.0,76,0.00,,,0.00,,2013-08-26 14:52:00,
2013-08-26 10:00:00,82.0,72.0,-100.00,SSE,151,6.0,-999.0,70,0.00,,,0.00,,2013-08-26 15:00:00,
2013-08-26 10:47:00,82.0,72.0,-100.00,SSE,151,6.0,-999.0,70,0.00,,,0.00,,2013-08-26 15:47:00,
2013-08-26 10:59:00,82.0,72.0,-100.00,SSE,151,6.0,-999.0,70,0.00,,,0.00,,2013-08-26 15:59:00,
2013-08-26 11:00:00,84.0,71.0,-100.00,SSE,153,10.0,-999.0,65,0.00,,,0.00,,2013-08-26 16:00:00,
2013-08-26 11:48:00,84.0,71.0,-100.00,SSE,153,10.0,-999.0,65,0.00,,,0.00,,2013-08-26 16:48:00,
2013-08-26 11:59:00,84.0,71.0,-100.00,SSE,153,10.0,-999.0,65,0.00,,,0.00,,2013-08-26 16:59:00,
2013-08-26 12:00:00,86.0,71.0,-100.00,SSE,154,8.0,-999.0,61,0.00,,,0.00,,2013-08-26 17:00:00,
2013-08-26 12:43:00,86.0,71.0,-100.00,SSE,154,8.0,-999.0,61,0.00,,,0.00,,2013-08-26 17:43:00,
2013-08-26 12:53:00,86.0,71.0,-100.00,SSE,154,8.0,-999.0,61,0.00,,,0.00,,2013-08-26 17:53:00,
2013-08-26 13:00:00,89.0,69.0,-100.00,SSE,165,11.0,-999.0,52,0.00,,,0.00,,2013-08-26 18:00:00,
2013-08-26 13:42:00,89.0,69.0,-100.00,SSE,165,11.0,-999.0,52,0.00,,,0.00,,2013-08-26 18:42:00,
2013-08-26 13:52:00,89.0,69.0,-100.00,SSE,165,11.0,-999.0,52,0.00,,,0.00,,2013-08-26 18:52:00,
2013-08-26 14:00:00,91.0,68.0,-100.00,SSE,162,8.0,-999.0,47,0.00,,,0.00,,2013-08-26 19:00:00,
2013-08-26 14:42:00,91.0,68.0,-100.00,SSE,162,8.0,-999.0,47,0.00,,,0.00,,2013-08-26 19:42:00,
2013-08-26 14:52:00,91.0,68.0,-100.00,SSE,162,8.0,-999.0,47,0.00,,,0.00,,2013-08-26 19:52:00,
2013-08-26 15:00:00,91.0,66.0,-100.00,East,100,8.0,-999.0,44,0.00,,,0.00,,2013-08-26 20:00:00,
2013-08-26 15:43:00,91.0,66.0,-100.00,East,100,8.0,-999.0,44,0.00,,,0.00,,2013-08-26 20:43:00,
2013-08-26 15:52:00,91.0,66.0,-100.00,East,100,8.0,-999.0,44,0.00,,,0.00,,2013-08-26 20:52:00,
2013-08-26 16:00:00,93.0,65.0,-100.00,SSE,157,8.0,-999.0,39,0.00,,,0.00,,2013-08-26 21:00:00,
2013-08-26 16:44:00,93.0,65.0,-100.00,SSE,157,8.0,-999.0,39,0.00,,,0.00,,2013-08-26 21:44:00,
2013-08-26 16:55:00,93.0,65.0,-100.00,SSE,157,8.0,-999.0,39,0.00,,,0.00,,2013-08-26 21:55:00,
2013-08-26 17:00:00,93.0,60.0,-100.00,SE,134,8.0,-999.0,33,0.00,,,0.00,,2013-08-26 22:00:00,
2013-08-26 17:42:00,93.0,60.0,-100.00,SE,134,8.0,-999.0,33,0.00,,,0.00,,2013-08-26 22:42:00,
2013-08-26 17:53:00,93.0,60.0,-100.00,SE,134,8.0,-999.0,33,0.00,,,0.00,,2013-08-26 22:53:00,
2013-08-26 18:00:00,93.0,62.0,-100.00,SE,137,7.0,-999.0,37,0.00,,,0.00,,2013-08-26 23:00:00,
2013-08-26 18:42:00,93.0,62.0,-100.00,SE,137,7.0,-999.0,37,0.00,,,0.00,,2013-08-26 23:42:00,
2013-08-26 18:52:00,93.0,62.0,-100.00,SE,137,7.0,-999.0,37,0.00,,,0.00,,2013-08-26 23:52:00,
2013-08-26 19:00:00,91.0,62.0,-100.00,SE,133,6.0,-999.0,38,0.00,,,0.00,,2013-08-27 00:00:00,
2013-08-26 19:42:00,91.0,62.0,-100.00,SE,133,6.0,-999.0,38,0.00,,,0.00,,2013-08-27 00:42:00,
2013-08-26 19:52:00,91.0,62.0,-100.00,SE,133,6.0,-999.0,38,0.00,,,0.00,,2013-08-27 00:52:00,
2013-08-26 20:00:00,88.0,63.0,-100.00,East,101,4.0,-999.0,43,0.00,,,0.00,,2013-08-27 01:00:00,
2013-08-26 20:42:00,88.0,63.0,-100.00,East,101,4.0,-999.0,43,0.00,,,0.00,,2013-08-27 01:42:00,
2013-08-26 20:52:00,88.0,63.0,-100.00,East,101,4.0,-999.0,43,0.00,,,0.00,,2013-08-27 01:52:00,
2013-08-26 21:00:00,85.0,64.0,-100.00,ENE,62,2.0,-999.0,50,0.00,,,0.00,,2013-08-27 02:00:00,
2013-08-26 21:43:00,85.0,64.0,-100.00,ENE,62,2.0,-999.0,50,0.00,,,0.00,,2013-08-27 02:43:00,
2013-08-26 21:52:00,85.0,64.0,-100.00,ENE,62,2.0,-999.0,50,0.00,,,0.00,,2013-08-27 02:52:00,
2013-08-26 22:00:00,83.0,64.0,-100.00,East,91,2.0,-999.0,53,0.00,,,0.00,,2013-08-27 03:00:00,
2013-08-26 22:45:00,83.0,64.0,-100.00,East,91,2.0,-999.0,53,0.00,,,0.00,,2013-08-27 03:45:00,
2013-08-26 22:58:00,83.0,64.0,-100.00,East,91,2.0,-999.0,53,0.00,,,0.00,,2013-08-27 03:58:00,
2013-08-26 23:00:00,81.0,63.0,-100.00,ESE,116,2.0,-999.0,55,0.00,,,0.00,,2013-08-27 04:00:00,
2013-08-26 23:47:00,81.0,63.0,-100.00,ESE,116,2.0,-999.0,55,0.00,,,0.00,,2013-08-27 04:47:00,
2013-08-26 23:54:00,81.0,63.0,-100.00,ESE,116,2.0,-999.0,55,0.00,,,0.00,,2013-08-27 04:54:00,